sensor_id;sensor_type;location;lat;lon;timestamp;pressure;altitude;pressure_sealevel;temperature;humidity
74466;BME280;62916;50.044;15.938;2023-07-20T00:02:16;98560.02;;;27.86;38.66
74466;BME280;62916;50.044;15.938;2023-07-20T00:04:47;98562.61;;;27.84;38.70
74466;BME280;62916;50.044;15.938;2023-07-20T00:07:18;98559.15;;;27.83;38.58
74466;BME280;62916;50.044;15.938;2023-07-20T00:09:49;98562.64;;;27.82;38.48
74466;BME280;62916;50.044;15.938;2023-07-20T00:12:20;98558.62;;;27.80;38.69
74466;BME280;62916;50.044;15.938;2023-07-20T00:14:51;98560.80;;;27.79;38.47
74466;BME280;62916;50.044;15.938;2023-07-20T00:17:23;98558.04;;;27.80;38.75
74466;BME280;62916;50.044;15.938;2023-07-20T00:19:54;98555.50;;;27.79;38.59
74466;BME280;62916;50.044;15.938;2023-07-20T00:22:25;98546.95;;;27.78;38.50
74466;BME280;62916;50.044;15.938;2023-07-20T00:24:55;98548.31;;;27.76;38.56
74466;BME280;62916;50.044;15.938;2023-07-20T00:27:26;98548.67;;;27.74;38.52
74466;BME280;62916;50.044;15.938;2023-07-20T00:29:57;98553.89;;;27.74;38.57
74466;BME280;62916;50.044;15.938;2023-07-20T00:32:28;98550.75;;;27.72;38.57
74466;BME280;62916;50.044;15.938;2023-07-20T00:34:59;98557.70;;;27.69;38.49
74466;BME280;62916;50.044;15.938;2023-07-20T00:37:30;98561.02;;;27.67;38.62
74466;BME280;62916;50.044;15.938;2023-07-20T00:40:00;98556.48;;;27.64;38.36
74466;BME280;62916;50.044;15.938;2023-07-20T00:42:31;98553.73;;;27.61;38.61
74466;BME280;62916;50.044;15.938;2023-07-20T00:45:03;98561.60;;;27.58;38.64
74466;BME280;62916;50.044;15.938;2023-07-20T00:47:34;98567.41;;;27.56;38.66
74466;BME280;62916;50.044;15.938;2023-07-20T00:50:07;98567.10;;;27.53;38.72
74466;BME280;62916;50.044;15.938;2023-07-20T00:52:40;98568.81;;;27.49;38.70
74466;BME280;62916;50.044;15.938;2023-07-20T00:55:11;98573.02;;;27.46;38.63
74466;BME280;62916;50.044;15.938;2023-07-20T00:57:42;98574.20;;;27.45;38.54
74466;BME280;62916;50.044;15.938;2023-07-20T01:00:15;98570.90;;;27.43;38.76
74466;BME280;62916;50.044;15.938;2023-07-20T01:02:46;98567.73;;;27.42;38.66
74466;BME280;62916;50.044;15.938;2023-07-20T01:05:17;98558.25;;;27.41;38.65
74466;BME280;62916;50.044;15.938;2023-07-20T01:07:55;98552.08;;;27.37;38.63
74466;BME280;62916;50.044;15.938;2023-07-20T01:10:33;98568.69;;;27.37;38.63
74466;BME280;62916;50.044;15.938;2023-07-20T01:13:08;98575.68;;;27.36;38.86
74466;BME280;62916;50.044;15.938;2023-07-20T01:15:40;98575.09;;;27.31;38.70
74466;BME280;62916;50.044;15.938;2023-07-20T01:18:11;98575.96;;;27.34;38.83
74466;BME280;62916;50.044;15.938;2023-07-20T01:20:42;98568.42;;;27.32;38.97
74466;BME280;62916;50.044;15.938;2023-07-20T01:23:27;98571.73;;;27.30;39.13
74466;BME280;62916;50.044;15.938;2023-07-20T01:26:16;98573.50;;;27.30;39.22
74466;BME280;62916;50.044;15.938;2023-07-20T01:29:11;98574.84;;;27.26;39.13
74466;BME280;62916;50.044;15.938;2023-07-20T01:31:45;98573.14;;;27.23;39.16
74466;BME280;62916;50.044;15.938;2023-07-20T01:34:23;98572.22;;;27.21;39.34
74466;BME280;62916;50.044;15.938;2023-07-20T01:36:56;98570.64;;;27.20;39.13
74466;BME280;62916;50.044;15.938;2023-07-20T01:39:28;98565.58;;;27.19;39.15
74466;BME280;62916;50.044;15.938;2023-07-20T01:41:59;98556.69;;;27.17;39.38
74466;BME280;62916;50.044;15.938;2023-07-20T01:44:30;98556.23;;;27.10;39.33
74466;BME280;62916;50.044;15.938;2023-07-20T01:47:01;98570.94;;;27.10;39.50
74466;BME280;62916;50.044;15.938;2023-07-20T01:49:32;98572.19;;;27.07;39.67
74466;BME280;62916;50.044;15.938;2023-07-20T01:52:03;98574.55;;;27.06;39.56
74466;BME280;62916;50.044;15.938;2023-07-20T01:54:34;98576.91;;;27.07;39.59
74466;BME280;62916;50.044;15.938;2023-07-20T01:57:06;98580.38;;;27.05;39.64
74466;BME280;62916;50.044;15.938;2023-07-20T01:59:37;98582.21;;;27.03;39.46
74466;BME280;62916;50.044;15.938;2023-07-20T02:02:08;98576.61;;;27.04;39.75
74466;BME280;62916;50.044;15.938;2023-07-20T02:04:39;98572.96;;;27.04;39.81
74466;BME280;62916;50.044;15.938;2023-07-20T02:07:10;98579.15;;;27.04;39.69
74466;BME280;62916;50.044;15.938;2023-07-20T02:09:41;98586.97;;;27.05;39.66
74466;BME280;62916;50.044;15.938;2023-07-20T02:12:12;98593.22;;;27.04;39.67
74466;BME280;62916;50.044;15.938;2023-07-20T02:14:43;98597.42;;;27.03;39.79
74466;BME280;62916;50.044;15.938;2023-07-20T02:17:14;98602.13;;;27.04;39.78
74466;BME280;62916;50.044;15.938;2023-07-20T02:19:45;98600.22;;;27.01;39.85
74466;BME280;62916;50.044;15.938;2023-07-20T02:22:19;98602.23;;;27.00;40.11
74466;BME280;62916;50.044;15.938;2023-07-20T02:24:50;98609.94;;;26.99;39.92
74466;BME280;62916;50.044;15.938;2023-07-20T02:27:20;98608.94;;;26.98;39.72
74466;BME280;62916;50.044;15.938;2023-07-20T02:29:51;98608.38;;;26.99;39.67
74466;BME280;62916;50.044;15.938;2023-07-20T02:32:22;98615.84;;;26.98;39.86
74466;BME280;62916;50.044;15.938;2023-07-20T02:34:53;98617.13;;;26.97;40.03
74466;BME280;62916;50.044;15.938;2023-07-20T02:37:24;98620.69;;;26.95;39.92
74466;BME280;62916;50.044;15.938;2023-07-20T02:39:55;98625.63;;;26.95;39.98
74466;BME280;62916;50.044;15.938;2023-07-20T02:42:27;98627.52;;;26.95;39.73
74466;BME280;62916;50.044;15.938;2023-07-20T02:44:58;98629.96;;;26.96;40.18
74466;BME280;62916;50.044;15.938;2023-07-20T02:47:30;98624.33;;;26.95;39.81
74466;BME280;62916;50.044;15.938;2023-07-20T02:50:01;98627.52;;;26.95;40.22
74466;BME280;62916;50.044;15.938;2023-07-20T02:52:32;98630.12;;;26.96;39.87
74466;BME280;62916;50.044;15.938;2023-07-20T02:55:03;98634.03;;;26.96;39.71
74466;BME280;62916;50.044;15.938;2023-07-20T02:57:34;98637.30;;;26.97;40.07
74466;BME280;62916;50.044;15.938;2023-07-20T03:00:06;98640.63;;;27.01;39.85
74466;BME280;62916;50.044;15.938;2023-07-20T03:02:37;98641.21;;;27.01;39.93
74466;BME280;62916;50.044;15.938;2023-07-20T03:05:10;98641.44;;;27.01;40.01
74466;BME280;62916;50.044;15.938;2023-07-20T03:07:41;98642.55;;;27.00;40.00
74466;BME280;62916;50.044;15.938;2023-07-20T03:10:13;98642.06;;;26.99;39.78
74466;BME280;62916;50.044;15.938;2023-07-20T03:12:44;98642.20;;;26.98;39.84
74466;BME280;62916;50.044;15.938;2023-07-20T03:15:15;98640.88;;;26.97;39.96
74466;BME280;62916;50.044;15.938;2023-07-20T03:17:46;98638.67;;;26.97;39.99
74466;BME280;62916;50.044;15.938;2023-07-20T03:20:17;98637.05;;;26.96;40.03
74466;BME280;62916;50.044;15.938;2023-07-20T03:22:48;98635.09;;;26.96;40.01
74466;BME280;62916;50.044;15.938;2023-07-20T03:25:19;98636.13;;;26.95;39.88
74466;BME280;62916;50.044;15.938;2023-07-20T03:27:50;98637.38;;;26.93;40.15
74466;BME280;62916;50.044;15.938;2023-07-20T03:30:21;98637.63;;;26.93;39.99
74466;BME280;62916;50.044;15.938;2023-07-20T03:32:52;98641.90;;;26.95;39.89
74466;BME280;62916;50.044;15.938;2023-07-20T03:35:23;98636.61;;;26.95;40.26
74466;BME280;62916;50.044;15.938;2023-07-20T03:37:54;98638.28;;;26.93;39.97
74466;BME280;62916;50.044;15.938;2023-07-20T03:40:25;98636.63;;;26.92;40.17
74466;BME280;62916;50.044;15.938;2023-07-20T03:42:56;98638.77;;;26.91;39.99
74466;BME280;62916;50.044;15.938;2023-07-20T03:45:26;98630.45;;;26.90;40.37
74466;BME280;62916;50.044;15.938;2023-07-20T03:47:57;98627.90;;;26.89;39.77
74466;BME280;62916;50.044;15.938;2023-07-20T03:50:28;98631.77;;;26.88;40.37
74466;BME280;62916;50.044;15.938;2023-07-20T03:52:59;98630.45;;;26.86;40.09
74466;BME280;62916;50.044;15.938;2023-07-20T03:55:30;98629.86;;;26.85;40.14
74466;BME280;62916;50.044;15.938;2023-07-20T03:58:00;98632.68;;;26.84;40.08
74466;BME280;62916;50.044;15.938;2023-07-20T04:00:31;98635.55;;;26.84;40.36
74466;BME280;62916;50.044;15.938;2023-07-20T04:03:03;98636.89;;;26.87;40.00
74466;BME280;62916;50.044;15.938;2023-07-20T04:05:34;98642.52;;;26.88;40.05
74466;BME280;62916;50.044;15.938;2023-07-20T04:08:05;98648.52;;;26.93;40.12
74466;BME280;62916;50.044;15.938;2023-07-20T04:10:36;98646.56;;;26.97;40.12
74466;BME280;62916;50.044;15.938;2023-07-20T04:13:07;98638.84;;;26.97;40.04
74466;BME280;62916;50.044;15.938;2023-07-20T04:15:38;98642.34;;;27.05;40.26
74466;BME280;62916;50.044;15.938;2023-07-20T04:18:09;98644.58;;;27.08;40.28
74466;BME280;62916;50.044;15.938;2023-07-20T04:20:40;98641.64;;;27.10;40.11
74466;BME280;62916;50.044;15.938;2023-07-20T04:23:11;98648.73;;;27.12;40.23
74466;BME280;62916;50.044;15.938;2023-07-20T04:25:43;98655.97;;;27.15;40.22
74466;BME280;62916;50.044;15.938;2023-07-20T04:28:14;98655.68;;;27.17;40.29
74466;BME280;62916;50.044;15.938;2023-07-20T04:30:44;98663.43;;;27.19;40.36
74466;BME280;62916;50.044;15.938;2023-07-20T04:33:15;98667.85;;;27.20;40.17
74466;BME280;62916;50.044;15.938;2023-07-20T04:35:49;98668.45;;;27.21;40.10
74466;BME280;62916;50.044;15.938;2023-07-20T04:38:21;98663.92;;;27.22;40.26
74466;BME280;62916;50.044;15.938;2023-07-20T04:40:51;98660.92;;;27.23;40.18
74466;BME280;62916;50.044;15.938;2023-07-20T04:43:22;98667.16;;;27.25;39.98
74466;BME280;62916;50.044;15.938;2023-07-20T04:45:54;98663.51;;;27.26;40.12
74466;BME280;62916;50.044;15.938;2023-07-20T04:48:25;98658.06;;;27.26;40.00
74466;BME280;62916;50.044;15.938;2023-07-20T04:50:56;98661.27;;;27.27;39.98
74466;BME280;62916;50.044;15.938;2023-07-20T04:53:27;98664.84;;;27.27;39.96
74466;BME280;62916;50.044;15.938;2023-07-20T04:55:58;98667.68;;;27.28;39.79
74466;BME280;62916;50.044;15.938;2023-07-20T04:58:29;98665.90;;;27.27;39.95
74466;BME280;62916;50.044;15.938;2023-07-20T05:01:00;98669.00;;;27.29;39.93
74466;BME280;62916;50.044;15.938;2023-07-20T05:03:30;98672.01;;;27.29;39.95
74466;BME280;62916;50.044;15.938;2023-07-20T05:06:01;98669.64;;;27.28;39.97
74466;BME280;62916;50.044;15.938;2023-07-20T05:08:32;98676.39;;;27.29;40.08
74466;BME280;62916;50.044;15.938;2023-07-20T05:11:04;98678.20;;;27.29;40.07
74466;BME280;62916;50.044;15.938;2023-07-20T05:13:34;98681.46;;;27.30;40.07
74466;BME280;62916;50.044;15.938;2023-07-20T05:16:06;98681.63;;;27.30;40.17
74466;BME280;62916;50.044;15.938;2023-07-20T05:18:37;98681.58;;;27.31;39.99
74466;BME280;62916;50.044;15.938;2023-07-20T05:21:08;98679.07;;;27.32;39.91
74466;BME280;62916;50.044;15.938;2023-07-20T05:23:39;98683.50;;;27.33;39.99
74466;BME280;62916;50.044;15.938;2023-07-20T05:26:10;98680.09;;;27.29;39.93
74466;BME280;62916;50.044;15.938;2023-07-20T05:28:41;98689.45;;;27.33;39.72
74466;BME280;62916;50.044;15.938;2023-07-20T05:31:11;98690.20;;;27.34;39.94
74466;BME280;62916;50.044;15.938;2023-07-20T05:33:42;98690.36;;;27.34;39.70
74466;BME280;62916;50.044;15.938;2023-07-20T05:36:13;98691.02;;;27.35;39.92
74466;BME280;62916;50.044;15.938;2023-07-20T05:38:44;98691.50;;;27.34;39.94
74466;BME280;62916;50.044;15.938;2023-07-20T05:41:14;98688.01;;;27.35;39.74
74466;BME280;62916;50.044;15.938;2023-07-20T05:43:45;98687.70;;;27.35;39.70
74466;BME280;62916;50.044;15.938;2023-07-20T05:46:16;98684.30;;;27.36;40.07
74466;BME280;62916;50.044;15.938;2023-07-20T05:48:47;98688.39;;;27.37;39.83
74466;BME280;62916;50.044;15.938;2023-07-20T05:51:18;98687.48;;;27.37;40.02
74466;BME280;62916;50.044;15.938;2023-07-20T05:53:49;98686.11;;;27.37;39.83
74466;BME280;62916;50.044;15.938;2023-07-20T05:56:19;98687.98;;;27.38;39.84
74466;BME280;62916;50.044;15.938;2023-07-20T05:58:51;98691.41;;;27.38;40.12
74466;BME280;62916;50.044;15.938;2023-07-20T06:01:22;98694.76;;;27.39;39.85
74466;BME280;62916;50.044;15.938;2023-07-20T06:03:53;98698.79;;;27.41;40.02
74466;BME280;62916;50.044;15.938;2023-07-20T06:06:24;98694.73;;;27.41;39.94
74466;BME280;62916;50.044;15.938;2023-07-20T06:08:55;98694.44;;;27.43;39.82
74466;BME280;62916;50.044;15.938;2023-07-20T06:11:26;98698.70;;;27.44;39.69
74466;BME280;62916;50.044;15.938;2023-07-20T06:13:57;98701.95;;;27.44;39.92
74466;BME280;62916;50.044;15.938;2023-07-20T06:16:28;98701.73;;;27.45;39.88
74466;BME280;62916;50.044;15.938;2023-07-20T06:18:59;98704.66;;;27.46;39.98
74466;BME280;62916;50.044;15.938;2023-07-20T06:21:30;98702.16;;;27.46;39.83
74466;BME280;62916;50.044;15.938;2023-07-20T06:24:01;98703.98;;;27.47;40.08
74466;BME280;62916;50.044;15.938;2023-07-20T06:26:32;98700.58;;;27.50;39.75
74466;BME280;62916;50.044;15.938;2023-07-20T06:29:08;98697.02;;;27.51;39.90
74466;BME280;62916;50.044;15.938;2023-07-20T06:31:39;98698.67;;;27.52;40.02
74466;BME280;62916;50.044;15.938;2023-07-20T06:34:10;98700.48;;;27.53;39.98
74466;BME280;62916;50.044;15.938;2023-07-20T06:36:41;98698.36;;;27.53;39.81
74466;BME280;62916;50.044;15.938;2023-07-20T06:39:12;98700.17;;;27.54;39.69
74466;BME280;62916;50.044;15.938;2023-07-20T06:41:46;98698.74;;;27.50;39.83
74466;BME280;62916;50.044;15.938;2023-07-20T06:44:17;98708.45;;;27.55;39.78
74466;BME280;62916;50.044;15.938;2023-07-20T06:46:48;98705.54;;;27.56;39.65
74466;BME280;62916;50.044;15.938;2023-07-20T06:49:27;98704.33;;;27.56;39.74
74466;BME280;62916;50.044;15.938;2023-07-20T06:51:58;98704.91;;;27.56;39.81
74466;BME280;62916;50.044;15.938;2023-07-20T06:54:29;98705.98;;;27.57;39.82
74466;BME280;62916;50.044;15.938;2023-07-20T06:57:05;98706.28;;;27.56;39.81
74466;BME280;62916;50.044;15.938;2023-07-20T06:59:39;98705.56;;;27.57;39.73
74466;BME280;62916;50.044;15.938;2023-07-20T07:02:10;98709.33;;;27.58;39.87
74466;BME280;62916;50.044;15.938;2023-07-20T07:04:43;98712.84;;;27.59;40.09
74466;BME280;62916;50.044;15.938;2023-07-20T07:07:15;98709.19;;;27.61;39.82
74466;BME280;62916;50.044;15.938;2023-07-20T07:09:55;98707.50;;;27.61;39.65
74466;BME280;62916;50.044;15.938;2023-07-20T07:12:26;98710.53;;;27.62;39.90
74466;BME280;62916;50.044;15.938;2023-07-20T07:14:57;98710.79;;;27.62;39.67
74466;BME280;62916;50.044;15.938;2023-07-20T07:17:28;98708.83;;;27.62;39.72
74466;BME280;62916;50.044;15.938;2023-07-20T07:20:03;98712.26;;;27.63;39.77
74466;BME280;62916;50.044;15.938;2023-07-20T07:22:37;98711.46;;;27.64;39.67
74466;BME280;62916;50.044;15.938;2023-07-20T07:25:10;98703.59;;;27.61;39.60
74466;BME280;62916;50.044;15.938;2023-07-20T07:27:41;98708.09;;;27.66;39.72
74466;BME280;62916;50.044;15.938;2023-07-20T07:30:14;98709.98;;;27.66;39.62
74466;BME280;62916;50.044;15.938;2023-07-20T07:32:45;98710.81;;;27.67;39.75
74466;BME280;62916;50.044;15.938;2023-07-20T07:35:16;98706.83;;;27.68;39.71
74466;BME280;62916;50.044;15.938;2023-07-20T07:37:47;98704.23;;;27.68;39.71
74466;BME280;62916;50.044;15.938;2023-07-20T07:40:38;98708.30;;;27.68;39.56
74466;BME280;62916;50.044;15.938;2023-07-20T07:43:09;98706.27;;;27.68;39.60
74466;BME280;62916;50.044;15.938;2023-07-20T07:45:41;98704.56;;;27.68;39.57
74466;BME280;62916;50.044;15.938;2023-07-20T07:48:12;98708.06;;;27.69;39.75
74466;BME280;62916;50.044;15.938;2023-07-20T07:50:43;98704.41;;;27.70;39.46
74466;BME280;62916;50.044;15.938;2023-07-20T07:53:14;98704.59;;;27.71;39.55
74466;BME280;62916;50.044;15.938;2023-07-20T07:55:45;98702.10;;;27.72;39.59
74466;BME280;62916;50.044;15.938;2023-07-20T07:58:16;98701.63;;;27.73;39.63
74466;BME280;62916;50.044;15.938;2023-07-20T08:00:47;98698.47;;;27.74;39.55
74466;BME280;62916;50.044;15.938;2023-07-20T08:03:18;98697.90;;;27.74;39.57
74466;BME280;62916;50.044;15.938;2023-07-20T08:05:50;98704.17;;;27.74;39.42
74466;BME280;62916;50.044;15.938;2023-07-20T08:08:21;98707.76;;;27.74;39.45
74466;BME280;62916;50.044;15.938;2023-07-20T08:10:54;98709.98;;;27.75;39.48
74466;BME280;62916;50.044;15.938;2023-07-20T08:13:25;98711.61;;;27.75;39.47
74466;BME280;62916;50.044;15.938;2023-07-20T08:15:57;98712.37;;;27.77;39.42
74466;BME280;62916;50.044;15.938;2023-07-20T08:18:28;98715.56;;;27.78;39.42
74466;BME280;62916;50.044;15.938;2023-07-20T08:20:59;98713.06;;;27.78;39.17
74466;BME280;62916;50.044;15.938;2023-07-20T08:23:30;98720.63;;;27.78;39.30
74466;BME280;62916;50.044;15.938;2023-07-20T08:26:01;98717.52;;;27.79;39.29
74466;BME280;62916;50.044;15.938;2023-07-20T08:28:32;98717.95;;;27.79;39.34
74466;BME280;62916;50.044;15.938;2023-07-20T08:31:03;98718.92;;;27.79;39.15
74466;BME280;62916;50.044;15.938;2023-07-20T08:33:36;98716.31;;;27.79;39.22
74466;BME280;62916;50.044;15.938;2023-07-20T08:36:07;98713.23;;;27.79;39.26
74466;BME280;62916;50.044;15.938;2023-07-20T08:38:48;98715.50;;;27.79;39.35
74466;BME280;62916;50.044;15.938;2023-07-20T08:41:20;98720.70;;;27.79;39.33
74466;BME280;62916;50.044;15.938;2023-07-20T08:43:51;98725.25;;;27.78;39.42
74466;BME280;62916;50.044;15.938;2023-07-20T08:46:26;98727.74;;;27.81;39.35
74466;BME280;62916;50.044;15.938;2023-07-20T08:48:57;98724.65;;;27.80;39.28
74466;BME280;62916;50.044;15.938;2023-07-20T08:51:31;98725.69;;;27.83;39.32
74466;BME280;62916;50.044;15.938;2023-07-20T08:54:03;98728.14;;;27.84;39.43
74466;BME280;62916;50.044;15.938;2023-07-20T08:56:35;98727.52;;;27.86;39.50
74466;BME280;62916;50.044;15.938;2023-07-20T08:59:06;98733.32;;;27.87;39.32
74466;BME280;62916;50.044;15.938;2023-07-20T09:01:40;98733.26;;;27.88;39.35
74466;BME280;62916;50.044;15.938;2023-07-20T09:04:12;98733.18;;;27.88;39.36
74466;BME280;62916;50.044;15.938;2023-07-20T09:06:43;98733.34;;;27.88;39.38
74466;BME280;62916;50.044;15.938;2023-07-20T09:09:14;98735.06;;;27.89;39.28
74466;BME280;62916;50.044;15.938;2023-07-20T09:11:47;98739.70;;;27.89;39.33
74466;BME280;62916;50.044;15.938;2023-07-20T09:14:19;98738.98;;;27.90;39.20
74466;BME280;62916;50.044;15.938;2023-07-20T09:16:51;98735.56;;;27.90;39.26
74466;BME280;62916;50.044;15.938;2023-07-20T09:19:24;98735.56;;;27.91;39.31
74466;BME280;62916;50.044;15.938;2023-07-20T09:21:55;98733.71;;;27.92;39.35
74466;BME280;62916;50.044;15.938;2023-07-20T09:24:28;98733.17;;;27.93;39.23
74466;BME280;62916;50.044;15.938;2023-07-20T09:27:03;98728.89;;;27.94;39.31
74466;BME280;62916;50.044;15.938;2023-07-20T09:29:34;98722.96;;;27.95;39.32
74466;BME280;62916;50.044;15.938;2023-07-20T09:32:06;98719.40;;;27.96;39.24
74466;BME280;62916;50.044;15.938;2023-07-20T09:34:52;98720.04;;;27.95;39.05
74466;BME280;62916;50.044;15.938;2023-07-20T09:37:23;98725.28;;;27.97;39.20
74466;BME280;62916;50.044;15.938;2023-07-20T09:39:54;98729.02;;;27.96;39.18
74466;BME280;62916;50.044;15.938;2023-07-20T09:42:28;98726.89;;;27.96;39.20
74466;BME280;62916;50.044;15.938;2023-07-20T09:45:02;98729.17;;;27.96;39.23
74466;BME280;62916;50.044;15.938;2023-07-20T09:47:37;98730.08;;;27.96;39.23
74466;BME280;62916;50.044;15.938;2023-07-20T09:50:09;98726.42;;;27.97;39.11
74466;BME280;62916;50.044;15.938;2023-07-20T09:52:44;98727.56;;;27.97;39.34
74466;BME280;62916;50.044;15.938;2023-07-20T09:55:18;98722.19;;;27.97;39.30
74466;BME280;62916;50.044;15.938;2023-07-20T09:57:50;98719.40;;;27.97;39.10
74466;BME280;62916;50.044;15.938;2023-07-20T10:00:23;98718.91;;;27.96;39.33
74466;BME280;62916;50.044;15.938;2023-07-20T10:02:57;98714.60;;;27.97;39.04
74466;BME280;62916;50.044;15.938;2023-07-20T10:05:29;98717.63;;;27.97;39.17
74466;BME280;62916;50.044;15.938;2023-07-20T10:08:05;98714.45;;;27.97;39.11
74466;BME280;62916;50.044;15.938;2023-07-20T10:10:45;98718.95;;;27.97;39.17
74466;BME280;62916;50.044;15.938;2023-07-20T10:13:21;98717.98;;;27.98;39.32
74466;BME280;62916;50.044;15.938;2023-07-20T10:15:58;98721.80;;;28.00;39.25
74466;BME280;62916;50.044;15.938;2023-07-20T10:18:31;98719.71;;;28.01;39.12
74466;BME280;62916;50.044;15.938;2023-07-20T10:21:07;98704.15;;;28.00;39.16
74466;BME280;62916;50.044;15.938;2023-07-20T10:23:43;98700.66;;;28.01;39.17
74466;BME280;62916;50.044;15.938;2023-07-20T10:26:15;98704.25;;;28.02;39.07
74466;BME280;62916;50.044;15.938;2023-07-20T10:28:46;98701.82;;;28.02;39.15
74466;BME280;62916;50.044;15.938;2023-07-20T10:31:18;98703.38;;;28.03;38.89
74466;BME280;62916;50.044;15.938;2023-07-20T10:33:50;98703.64;;;28.03;38.93
74466;BME280;62916;50.044;15.938;2023-07-20T10:36:27;98700.05;;;28.03;38.98
74466;BME280;62916;50.044;15.938;2023-07-20T10:39:00;98698.67;;;28.03;39.14
74466;BME280;62916;50.044;15.938;2023-07-20T10:41:35;98703.98;;;28.04;39.03
74466;BME280;62916;50.044;15.938;2023-07-20T10:44:08;98701.63;;;28.04;39.12
74466;BME280;62916;50.044;15.938;2023-07-20T10:46:48;98708.23;;;28.05;38.99
74466;BME280;62916;50.044;15.938;2023-07-20T10:49:19;98703.75;;;28.05;39.11
74466;BME280;62916;50.044;15.938;2023-07-20T10:51:59;98706.47;;;28.06;39.03
74466;BME280;62916;50.044;15.938;2023-07-20T10:54:48;98701.19;;;28.07;38.94
74466;BME280;62916;50.044;15.938;2023-07-20T10:57:28;98697.48;;;28.05;39.00
74466;BME280;62916;50.044;15.938;2023-07-20T11:00:13;98704.90;;;28.06;38.95
74466;BME280;62916;50.044;15.938;2023-07-20T11:02:46;98705.45;;;28.09;38.92
74466;BME280;62916;50.044;15.938;2023-07-20T11:05:37;98707.16;;;28.10;38.82
74466;BME280;62916;50.044;15.938;2023-07-20T11:08:11;98706.83;;;28.09;38.76
74466;BME280;62916;50.044;15.938;2023-07-20T11:10:42;98707.66;;;28.11;38.84
74466;BME280;62916;50.044;15.938;2023-07-20T11:13:23;98713.63;;;28.11;38.95
74466;BME280;62916;50.044;15.938;2023-07-20T11:16:06;98712.17;;;28.12;38.95
74466;BME280;62916;50.044;15.938;2023-07-20T11:18:37;98708.52;;;28.12;38.88
74466;BME280;62916;50.044;15.938;2023-07-20T11:21:13;98717.19;;;28.14;38.88
74466;BME280;62916;50.044;15.938;2023-07-20T11:23:44;98714.01;;;28.14;38.85
74466;BME280;62916;50.044;15.938;2023-07-20T11:26:16;98716.86;;;28.14;38.75
74466;BME280;62916;50.044;15.938;2023-07-20T11:28:51;98716.78;;;28.15;38.78
74466;BME280;62916;50.044;15.938;2023-07-20T11:31:22;98718.17;;;28.14;38.85
74466;BME280;62916;50.044;15.938;2023-07-20T11:33:54;98717.67;;;28.14;38.73
74466;BME280;62916;50.044;15.938;2023-07-20T11:36:41;98723.05;;;28.14;38.81
74466;BME280;62916;50.044;15.938;2023-07-20T11:39:16;98721.48;;;28.13;38.81
74466;BME280;62916;50.044;15.938;2023-07-20T11:41:50;98717.80;;;28.12;38.78
74466;BME280;62916;50.044;15.938;2023-07-20T11:44:23;98721.45;;;28.15;38.70
74466;BME280;62916;50.044;15.938;2023-07-20T11:47:06;98714.08;;;28.17;38.69
74466;BME280;62916;50.044;15.938;2023-07-20T11:49:38;98709.55;;;28.18;38.73
74466;BME280;62916;50.044;15.938;2023-07-20T11:52:12;98712.33;;;28.18;38.71
74466;BME280;62916;50.044;15.938;2023-07-20T11:54:46;98717.88;;;28.19;38.59
74466;BME280;62916;50.044;15.938;2023-07-20T11:57:19;98715.42;;;28.18;38.71
74466;BME280;62916;50.044;15.938;2023-07-20T11:59:58;98714.77;;;28.19;38.56
74466;BME280;62916;50.044;15.938;2023-07-20T12:02:32;98714.54;;;28.19;38.58
74466;BME280;62916;50.044;15.938;2023-07-20T12:05:04;98713.08;;;28.20;38.80
74466;BME280;62916;50.044;15.938;2023-07-20T12:07:37;98711.89;;;28.18;38.60
74466;BME280;62916;50.044;15.938;2023-07-20T12:10:11;98713.84;;;28.22;38.68
74466;BME280;62916;50.044;15.938;2023-07-20T12:12:44;98705.77;;;28.22;38.63
74466;BME280;62916;50.044;15.938;2023-07-20T12:15:16;98706.48;;;28.21;38.54
74466;BME280;62916;50.044;15.938;2023-07-20T12:17:51;98704.23;;;28.22;38.69
74466;BME280;62916;50.044;15.938;2023-07-20T12:20:29;98704.08;;;28.23;38.43
74466;BME280;62916;50.044;15.938;2023-07-20T12:23:04;98696.90;;;28.23;38.43
74466;BME280;62916;50.044;15.938;2023-07-20T12:25:38;98696.66;;;28.23;38.67
74466;BME280;62916;50.044;15.938;2023-07-20T12:28:10;98696.59;;;28.23;38.42
74466;BME280;62916;50.044;15.938;2023-07-20T12:30:42;98691.63;;;28.24;38.54
74466;BME280;62916;50.044;15.938;2023-07-20T12:33:15;98688.36;;;28.24;38.60
74466;BME280;62916;50.044;15.938;2023-07-20T12:35:47;98687.05;;;28.24;38.54
74466;BME280;62916;50.044;15.938;2023-07-20T12:38:18;98685.02;;;28.23;38.45
74466;BME280;62916;50.044;15.938;2023-07-20T12:40:49;98684.66;;;28.21;38.38
74466;BME280;62916;50.044;15.938;2023-07-20T12:43:20;98685.67;;;28.24;38.42
74466;BME280;62916;50.044;15.938;2023-07-20T12:45:51;98690.00;;;28.24;38.41
74466;BME280;62916;50.044;15.938;2023-07-20T12:48:23;98688.84;;;28.23;38.26
74466;BME280;62916;50.044;15.938;2023-07-20T12:50:54;98693.82;;;28.23;38.40
74466;BME280;62916;50.044;15.938;2023-07-20T12:53:25;98691.85;;;28.23;38.38
74466;BME280;62916;50.044;15.938;2023-07-20T12:55:56;98685.64;;;28.21;38.49
74466;BME280;62916;50.044;15.938;2023-07-20T12:58:27;98687.47;;;28.23;38.34
74466;BME280;62916;50.044;15.938;2023-07-20T13:00:58;98682.98;;;28.23;38.25
74466;BME280;62916;50.044;15.938;2023-07-20T13:03:30;98689.34;;;28.24;38.22
74466;BME280;62916;50.044;15.938;2023-07-20T13:06:01;98691.86;;;28.23;38.23
74466;BME280;62916;50.044;15.938;2023-07-20T13:08:35;98684.11;;;28.22;38.33
74466;BME280;62916;50.044;15.938;2023-07-20T13:11:06;98686.47;;;28.23;38.12
74466;BME280;62916;50.044;15.938;2023-07-20T13:13:37;98687.12;;;28.22;38.36
74466;BME280;62916;50.044;15.938;2023-07-20T13:16:08;98680.92;;;28.22;38.22
74466;BME280;62916;50.044;15.938;2023-07-20T13:18:38;98679.54;;;28.23;38.14